Clark Mills, NY

12:10 AM EST on January 30, 2015 (GMT -0500)
South Utica NY | Change Station
CLOSE
Current Station
Personal Weather Station
Location: Utica, NY
Elevation: 633 ft
Nearby Weather Stations
Active Advisory: Winter Weather Advisory

Elev 633 ft 43.08 °N, 75.26 °W | Updated 13 minutes ago

Snow
Snow
26.9 °F
Feels Like 27 °F
N
2.0
Wind Variable Wind from South
Gusts 10.0 mph

Today
High -- | Low -- °F
--% Chance of Precip.
Yesterday
High -- | Low -- °F
Precip. -- in
7:19 AM 5:10 PM
Waxing Gibbous, 80% visible
Pressure 29.87 in
Visibility 5.0 miles
Clouds Mostly Cloudy 2300 ft
Overcast 2800 ft
Windchill 27 °F
Dew Point 22 °F
Humidity 80%
Rainfall 0.00 in
Snow Depth Not available.
UV 0 out of 12
Pollen .10 out of 12
Air Quality Not available.
Flu Activity Not available.
METAR KRME 300453Z AUTO 13008KT 5SM -SN BKN023 OVC028 M03/M06 A2986 RMK AO2 UPE10SNB10 SLP114 P0000 T10281061 410061189

More Conditions Fewer Conditions

Pressure 29.87 in
Visibility 5.0 miles
Clouds Mostly Cloudy 2300 ft
Overcast 2800 ft
Windchill 27 °F
Dew Point 22 °F
Humidity 80%
Rainfall 0.00 in
Snow Depth Not available.
UV 0 out of 12
Pollen .10 out of 12
Air Quality Not available.
Flu Activity Not available.
METAR KRME 300453Z AUTO 13008KT 5SM -SN BKN023 OVC028 M03/M06 A2986 RMK AO2 UPE10SNB10 SLP114 P0000 T10281061 410061189

More Conditions Fewer Conditions

Nowcast | as of 10:17 PM EST on January 29, 2015

Snow showers will be over the region through 2 am...with additional accumulations of 1 to 2 inches.

×

10-Day Weather Forecast

Almanac

Astronomy

Jan. 30, 2015 Rise Set
Actual Time
Civil Twilight
Nautical Twilight
Astronomical Twilight
Moon
Length of Visible Light
Length of Day
Tomorrow will be .
, % of the Moon is Illuminated

Today's Extremes

State Highs State Lows

Community

WunderPhotos

Upload Photos

1,791,714 photos uploaded!

WunderBlogs® & News

Nearby

Air Quality

  Air Quality AQ Index Pollutant
Not available.

Snow Depth

Station Depth Elevation

Earthquake Activity

City Distance Mag. Time & Date
Minimum magnitude displayed is 2.5.

Coastal Water Temperatures

Place Temperature

Nearby Weather Stations